Time;durP1;ratioP1;P1;durP2;ratioP2;P2;SDS_P1;SDS_P2;PMS_P1;PMS_P2;Temp;Humidity;BMP_temperature;BMP_pressure;BME280_temperature;BME280_humidity;BME280_pressure;Samples;Min_cycle;Max_cycle;Signal;HPM_P1;HPM_P2
2021/03/19 00:09:39;;;;;;;23.42;10.93;;;;;;;1.98;100.00;100411.13;20902117;28;20048;-70
2021/03/19 00:19:40;;;;;;;15.82;8.20;;;;;;;2.20;100.00;100396.03;20902911;28;20064;-69
2021/03/19 00:29:41;;;;;;;19.20;8.40;;;;;;;2.19;100.00;100397.75;20902902;28;20179;-69
2021/03/19 00:39:43;;;;;;;18.58;8.90;;;;;;;2.17;100.00;100396.97;20900877;28;20060;-70
2021/03/19 00:49:44;;;;;;;15.02;7.15;;;;;;;2.19;100.00;100390.00;20900513;28;20045;-69
2021/03/19 00:59:45;;;;;;;15.88;8.00;;;;;;;2.26;100.00;100383.00;20910117;28;20049;-68
2021/03/19 01:09:46;;;;;;;17.80;9.07;;;;;;;2.17;100.00;100381.47;20916361;28;20071;-68
2021/03/19 01:19:47;;;;;;;20.45;10.40;;;;;;;2.29;100.00;100377.75;20916017;28;20052;-69
2021/03/19 01:29:48;;;;;;;16.92;9.50;;;;;;;2.16;100.00;100372.00;20915319;28;20060;-69
2021/03/19 01:39:49;;;;;;;22.40;11.15;;;;;;;2.12;100.00;100375.53;20913861;28;20045;-69
2021/03/19 01:50:32;;;;;;;21.13;11.18;;;;;;;2.14;100.00;100366.03;20914566;28;20048;-69
2021/03/19 02:01:11;;;;;;;23.05;12.07;;;;;;;2.17;100.00;100357.38;20912783;28;20052;-68
2021/03/19 02:11:49;;;;;;;24.35;13.32;;;;;;;2.17;100.00;100355.66;20910240;28;20094;-70
2021/03/19 02:22:28;;;;;;;26.33;14.20;;;;;;;2.13;100.00;100347.09;20911314;28;20484;-69
2021/03/19 02:32:30;;;;;;;26.95;14.02;;;;;;;2.02;100.00;100348.22;20892085;28;20052;-68
2021/03/19 02:42:32;;;;;;;25.30;13.88;;;;;;;2.02;100.00;100337.91;20909088;28;20550;-68
2021/03/19 02:52:36;;;;;;;27.55;15.20;;;;;;;2.11;100.00;100329.94;20908761;28;20084;-68
2021/03/19 03:02:38;;;;;;;30.77;16.00;;;;;;;2.09;100.00;100337.72;20907858;28;20051;-68
2021/03/19 03:12:40;;;;;;;28.88;15.38;;;;;;;1.99;100.00;100340.53;20907206;28;20480;-69
2021/03/19 03:22:42;;;;;;;30.70;16.67;;;;;;;1.90;100.00;100335.56;20906339;28;20098;-68
2021/03/19 03:32:43;;;;;;;30.80;16.58;;;;;;;1.84;100.00;100333.09;20905669;28;20048;-69
2021/03/19 03:42:46;;;;;;;31.45;17.05;;;;;;;2.00;100.00;100337.06;20905064;28;20397;-68
2021/03/19 03:52:47;;;;;;;34.22;16.90;;;;;;;1.95;100.00;100338.88;20904407;28;20048;-69
2021/03/19 04:02:48;;;;;;;34.00;17.38;;;;;;;2.01;100.00;100338.78;20903394;28;20075;-67
2021/03/19 04:12:51;;;;;;;31.27;16.25;;;;;;;2.00;100.00;100337.91;20901998;28;20057;-68
2021/03/19 04:22:53;;;;;;;30.30;16.25;;;;;;;2.04;100.00;100339.53;20900980;28;20056;-69
2021/03/19 04:32:55;;;;;;;30.80;15.80;;;;;;;2.02;100.00;100340.47;20899216;28;20037;-69
2021/03/19 04:42:56;;;;;;;32.08;15.95;;;;;;;2.16;100.00;100359.09;20902144;28;20056;-69
2021/03/19 04:52:57;;;;;;;30.05;15.68;;;;;;;2.00;100.00;100362.88;20901073;28;20102;-68
2021/03/19 05:02:58;;;;;;;31.02;16.45;;;;;;;1.76;100.00;100363.34;20898712;28;20053;-69
2021/03/19 05:13:00;;;;;;;33.50;16.25;;;;;;;1.80;100.00;100370.16;20899641;28;20065;-69
2021/03/19 05:23:01;;;;;;;34.25;16.73;;;;;;;1.82;100.00;100381.31;20882039;28;20052;-67
2021/03/19 05:33:04;;;;;;;30.35;16.27;;;;;;;1.85;100.00;100402.75;20898545;28;20106;-69
2021/03/19 05:43:20;;;;;;;38.78;17.55;;;;;;;1.83;100.00;100403.66;20903268;28;20073;-68
2021/03/19 05:53:39;;;;;;;36.78;17.27;;;;;;;1.81;100.00;100418.31;21001722;23;20444;-68
2021/03/19 06:03:41;;;;;;;36.17;18.13;;;;;;;1.65;100.00;100431.47;21073657;28;20395;-69
2021/03/19 06:13:53;;;;;;;35.78;17.25;;;;;;;1.53;100.00;100443.72;21069495;28;20044;-69
2021/03/19 06:24:20;;;;;;;44.33;21.35;;;;;;;1.51;100.00;100441.19;20911963;28;20051;-69
2021/03/19 06:34:25;;;;;;;44.35;20.95;;;;;;;1.59;100.00;100438.47;20938671;28;20113;-69
2021/03/19 06:44:26;;;;;;;44.73;20.37;;;;;;;1.49;100.00;100445.50;21075658;28;20392;-69
2021/03/19 06:54:49;;;;;;;39.97;18.35;;;;;;;1.54;100.00;100456.59;21075086;28;20052;-69
2021/03/19 07:05:03;;;;;;;32.25;15.02;;;;;;;1.29;100.00;100460.44;21060092;28;20044;-68
2021/03/19 07:15:15;;;;;;;34.03;16.55;;;;;;;1.66;100.00;100466.72;21073648;28;20052;-68
2021/03/19 07:25:48;;;;;;;40.45;18.70;;;;;;;1.75;100.00;100470.88;21072887;28;20089;-68
2021/03/19 07:36:07;;;;;;;48.92;21.17;;;;;;;1.78;100.00;100478.53;21053601;28;20052;-69
2021/03/19 07:46:20;;;;;;;50.17;22.92;;;;;;;2.13;100.00;100491.66;21071956;28;20052;-69
2021/03/19 07:56:40;;;;;;;49.65;22.65;;;;;;;2.43;100.00;100508.34;21072321;28;20048;-69
2021/03/19 08:06:45;;;;;;;52.55;23.38;;;;;;;2.33;100.00;100511.13;21020242;28;20055;-69
2021/03/19 08:16:58;;;;;;;56.90;24.45;;;;;;;2.29;100.00;100518.06;20923475;28;20470;-69
2021/03/19 08:27:10;;;;;;;60.30;25.67;;;;;;;2.55;100.00;100523.59;20966697;28;20045;-68
2021/03/19 08:37:41;;;;;;;63.25;29.65;;;;;;;2.27;100.00;100543.09;20992962;28;20415;-69
2021/03/19 08:47:47;;;;;;;57.30;26.90;;;;;;;2.31;100.00;100555.06;20935757;28;20492;-70
2021/03/19 08:57:53;;;;;;;54.00;24.73;;;;;;;2.66;100.00;100556.97;20968456;28;20068;-69
2021/03/19 09:08:12;;;;;;;45.20;22.37;;;;;;;2.84;100.00;100558.34;21021339;28;20055;-69
2021/03/19 09:18:43;;;;;;;38.63;18.55;;;;;;;2.81;96.05;100579.06;21026543;28;20110;-69
2021/03/19 09:28:59;;;;;;;34.47;16.73;;;;;;;2.83;91.34;100600.59;21025714;28;20084;-70
2021/03/19 09:39:03;;;;;;;31.33;15.77;;;;;;;2.99;92.18;100608.00;21000747;28;20045;-69
2021/03/19 09:49:08;;;;;;;33.08;16.63;;;;;;;3.30;91.55;100602.22;20999565;28;20446;-69
2021/03/19 09:59:24;;;;;;;28.33;14.77;;;;;;;3.42;89.80;100612.28;20998788;28;20079;-69
2021/03/19 10:10:02;;;;;;;29.48;14.68;;;;;;;3.89;87.15;100624.16;21032281;28;20048;-69
2021/03/19 10:20:12;;;;;;;53.22;15.48;;;;;;;3.97;87.46;100624.81;20847558;28;20052;-70
2021/03/19 10:30:30;;;;;;;27.45;13.95;;;;;;;3.76;89.30;100622.72;20993727;28;20094;-69
2021/03/19 10:40:37;;;;;;;21.35;11.55;;;;;;;3.67;86.25;100634.13;21053397;28;20044;-70
2021/03/19 10:51:20;;;;;;;18.58;9.85;;;;;;;3.30;85.73;100654.75;21077975;28;20052;-69
2021/03/19 11:01:31;;;;;;;19.67;10.45;;;;;;;3.63;87.01;100657.53;21048297;28;20503;-69
2021/03/19 11:11:33;;;;;;;12.23;6.95;;;;;;;3.13;83.39;100685.31;21054591;28;20044;-69
2021/03/19 11:21:37;;;;;;;13.20;7.53;;;;;;;3.43;82.87;100691.59;20991279;28;20419;-69
2021/03/19 11:32:03;;;;;;;20.35;9.55;;;;;;;4.34;80.53;100673.16;20990773;28;20055;-69
2021/03/19 11:42:09;;;;;;;17.85;9.27;;;;;;;4.07;77.46;100685.00;21051277;28;20044;-70
2021/03/19 11:52:13;;;;;;;16.10;9.45;;;;;;;3.83;84.04;100697.63;21073308;28;20428;-69
2021/03/19 12:02:27;;;;;;;20.57;10.93;;;;;;;3.80;78.25;100692.53;21051937;28;20051;-69
2021/03/19 12:12:29;;;;;;;13.30;7.90;;;;;;;4.57;73.46;100691.59;20948066;28;20118;-69
2021/03/19 12:22:30;;;;;;;12.98;7.30;;;;;;;4.92;68.30;100691.53;20987913;28;20049;-69
2021/03/19 12:32:31;;;;;;;13.18;7.30;;;;;;;5.65;65.71;100686.88;20987017;28;20048;-69
2021/03/19 12:42:33;;;;;;;11.13;4.85;;;;;;;4.93;68.83;100694.94;21060636;28;20044;-70
2021/03/19 12:52:34;;;;;;;9.60;5.10;;;;;;;4.56;69.59;100708.03;21068877;28;20161;-69
2021/03/19 13:02:36;;;;;;;13.25;6.05;;;;;;;5.01;69.48;100709.44;21063884;28;20106;-70
2021/03/19 13:12:38;;;;;;;11.60;5.65;;;;;;;4.69;70.06;100727.56;21044734;28;20052;-69
2021/03/19 13:22:40;;;;;;;12.57;5.65;;;;;;;4.72;71.58;100723.13;20979873;22;20411;-71
2021/03/19 13:32:46;;;;;;;13.65;6.65;;;;;;;3.50;81.99;100738.91;21003803;28;20053;-72
2021/03/19 13:42:48;;;;;;;11.85;5.45;;;;;;;4.03;76.53;100728.25;21055505;28;20072;-71
2021/03/19 13:52:49;;;;;;;9.65;5.07;;;;;;;4.67;70.14;100739.72;20922570;28;20415;-71
2021/03/19 14:02:50;;;;;;;11.25;5.18;;;;;;;5.10;65.14;100716.97;20928359;28;20415;-71
2021/03/19 14:12:52;;;;;;;13.10;6.00;;;;;;;5.38;63.55;100735.25;20964944;28;20115;-71
2021/03/19 14:22:54;;;;;;;12.80;5.93;;;;;;;5.59;62.26;100738.97;20936675;28;20051;-71
2021/03/19 14:32:56;;;;;;;14.50;6.70;;;;;;;5.24;59.73;100752.91;20954421;28;20045;-74
2021/03/19 14:42:57;;;;;;;8.75;3.90;;;;;;;5.07;59.59;100758.56;20921509;28;20412;-74
2021/03/19 14:53:00;;;;;;;10.43;5.15;;;;;;;4.63;60.94;100764.00;20952126;28;20049;-73
2021/03/19 15:03:02;;;;;;;8.60;3.90;;;;;;;4.78;57.37;100768.81;20934979;28;20094;-73
2021/03/19 15:13:05;;;;;;;14.48;6.43;;;;;;;5.11;55.20;100778.34;21047093;28;20045;-74
2021/03/19 15:23:06;;;;;;;16.38;6.82;;;;;;;5.14;54.62;100793.81;20990752;28;20048;-73
2021/03/19 15:33:07;;;;;;;26.40;11.88;;;;;;;5.00;57.23;100803.72;20993724;28;20062;-74
2021/03/19 15:43:09;;;;;;;11.77;4.68;;;;;;;4.73;59.53;100804.38;21048263;28;20048;-73
2021/03/19 15:53:10;;;;;;;8.98;4.32;;;;;;;4.62;59.86;100801.22;21055803;28;20109;-74
2021/03/19 16:03:12;;;;;;;11.13;3.67;;;;;;;4.65;57.49;100814.94;20997163;28;20055;-73
2021/03/19 16:13:14;;;;;;;7.93;3.35;;;;;;;4.70;54.12;100825.19;21024036;28;20127;-73
2021/03/19 16:23:16;;;;;;;6.07;2.67;;;;;;;4.50;54.99;100817.88;20987242;28;20048;-74
2021/03/19 16:33:19;;;;;;;6.07;3.03;;;;;;;4.41;55.64;100840.56;20993405;28;20549;-73
2021/03/19 16:43:21;;;;;;;6.60;2.90;;;;;;;4.54;55.29;100862.72;21062164;28;20126;-74
2021/03/19 16:53:25;;;;;;;13.77;4.95;;;;;;;4.29;57.32;100873.63;21069048;28;20048;-73
2021/03/19 17:03:29;;;;;;;7.60;3.83;;;;;;;4.28;57.13;100884.00;21062135;28;20048;-74
2021/03/19 17:13:31;;;;;;;9.95;5.00;;;;;;;4.12;57.07;100892.97;21019622;28;20384;-70
2021/03/19 17:23:33;;;;;;;9.68;4.50;;;;;;;3.99;56.81;100920.00;20984629;28;20510;-70
2021/03/19 17:33:36;;;;;;;8.43;4.13;;;;;;;3.85;58.59;100915.97;20991233;28;20048;-71
2021/03/19 17:43:38;;;;;;;9.48;4.63;;;;;;;3.58;60.55;100918.16;20996989;28;20048;-71
2021/03/19 17:53:41;;;;;;;24.63;11.82;;;;;;;3.23;62.83;100929.97;20998870;28;20045;-70
2021/03/19 18:03:42;;;;;;;8.18;4.07;;;;;;;2.95;64.63;100936.41;20959509;28;20044;-71
2021/03/19 18:13:45;;;;;;;11.73;5.22;;;;;;;2.31;72.10;100945.03;21047521;28;20049;-70
2021/03/19 18:23:45;;;;;;;7.53;3.63;;;;;;;2.02;71.50;100963.44;20996868;28;20049;-70
2021/03/19 18:33:47;;;;;;;10.60;5.57;;;;;;;2.20;69.96;100974.41;21003793;28;20535;-70
2021/03/19 18:43:49;;;;;;;10.82;4.18;;;;;;;2.25;70.92;100989.00;21072306;28;20091;-70
2021/03/19 18:53:51;;;;;;;7.28;3.35;;;;;;;2.34;70.84;100993.19;21058560;28;20093;-71
2021/03/19 19:03:52;;;;;;;8.85;3.70;;;;;;;2.12;71.60;101000.34;21068496;28;20465;-70
2021/03/19 19:13:53;;;;;;;11.30;4.45;;;;;;;1.96;72.89;101002.22;21043472;28;20049;-70
2021/03/19 19:23:54;;;;;;;10.23;4.20;;;;;;;1.82;74.85;101019.56;20990981;28;20048;-70
2021/03/19 19:33:55;;;;;;;10.10;4.68;;;;;;;1.69;75.96;101033.41;20980207;28;20040;-70
2021/03/19 19:43:56;;;;;;;10.75;4.70;;;;;;;1.61;77.14;101045.53;21068594;28;20119;-70
2021/03/19 19:53:58;;;;;;;9.80;4.93;;;;;;;1.46;78.03;101040.47;21074562;28;20475;-71
2021/03/19 20:04:00;;;;;;;9.10;4.18;;;;;;;1.40;78.56;101061.16;20949246;28;20053;-70
2021/03/19 20:14:02;;;;;;;9.65;4.63;;;;;;;1.31;79.96;101072.38;21039304;28;20128;-70
2021/03/19 20:24:05;;;;;;;9.18;4.80;;;;;;;1.31;79.76;101077.53;20987678;28;20052;-71
2021/03/19 20:34:09;;;;;;;9.95;4.75;;;;;;;1.25;80.82;101090.47;20994443;28;20040;-71
2021/03/19 20:44:11;;;;;;;13.45;5.53;;;;;;;1.20;81.09;101089.63;21066601;28;20044;-71
2021/03/19 20:54:12;;;;;;;10.35;5.55;;;;;;;0.98;81.81;101098.31;21070141;28;20104;-70
2021/03/19 21:04:14;;;;;;;10.75;5.53;;;;;;;0.81;83.07;101112.09;21039933;28;20446;-71
2021/03/19 21:14:17;;;;;;;11.43;5.35;;;;;;;0.74;82.82;101122.44;21021455;28;20113;-71
2021/03/19 21:24:20;;;;;;;11.10;5.15;;;;;;;0.70;83.18;101138.78;20982772;28;20044;-70
2021/03/19 21:34:21;;;;;;;10.38;5.13;;;;;;;0.55;83.59;101149.97;21008509;28;20510;-71
2021/03/19 21:44:28;;;;;;;10.43;4.82;;;;;;;0.47;83.56;101155.97;21083129;28;20056;-71
2021/03/19 21:54:30;;;;;;;11.15;5.47;;;;;;;0.47;83.72;101166.28;21083589;28;20101;-71
2021/03/19 22:04:31;;;;;;;11.10;5.88;;;;;;;0.26;84.31;101168.00;20990671;28;20036;-71
2021/03/19 22:14:45;;;;;;;11.67;6.33;;;;;;;0.27;84.29;101179.16;20913267;28;20120;-71
2021/03/19 22:24:46;;;;;;;16.25;7.13;;;;;;;0.31;84.69;101183.44;20914264;28;20045;-71
2021/03/19 22:34:47;;;;;;;11.48;6.22;;;;;;;0.35;85.30;101187.75;20946235;28;20132;-71
2021/03/19 22:44:58;;;;;;;11.63;5.88;;;;;;;0.45;84.71;101189.47;21079761;28;20048;-71
2021/03/19 22:54:59;;;;;;;11.25;5.53;;;;;;;0.25;85.25;101191.19;21078861;28;20059;-71
2021/03/19 23:04:59;;;;;;;14.90;6.43;;;;;;;0.38;85.25;101192.91;21043949;28;20044;-74
2021/03/19 23:15:01;;;;;;;11.63;5.40;;;;;;;0.06;86.46;101194.56;20992558;28;20041;-73
2021/03/19 23:25:02;;;;;;;14.57;5.80;;;;;;;-0.20;87.19;101208.25;20966172;28;20453;-73
2021/03/19 23:35:05;;;;;;;13.27;6.25;;;;;;;-0.37;88.08;101197.09;21059099;28;20097;-75
2021/03/19 23:45:07;;;;;;;11.88;5.97;;;;;;;-0.51;89.24;101212.44;21075006;28;20044;-74
2021/03/19 23:55:09;;;;;;;12.00;6.82;;;;;;;-0.52;89.26;101218.47;21023718;22;20048;-70
